Terminal Aerodrome Forecast
Issued by NWS Pocatello, ID

Home | Current Version | Previous Version | Text Only | Print | Product List | Glossary On
Versions: 1 2 3 4 5 6 7 8 9 10 11 12 13 14 15 16 17 18 19 20 21
198
FTUS45 KPIH 162024 AAA
TAFBYI
TAF AMD
KBYI 162024Z 1620/1718 27012G19KT P6SM VCSH OVC010
     FM170000 27006KT P6SM SCT008 OVC015
     FM170900 25006KT 2SM BR OVC008
     FM171500 27005KT P6SM SCT008=

USA.gov is the U.S. government's official web portal to all federal, state and local government web resources and services.